createdAt,value
2018-05-13T00:00:18.639Z,54.33
2018-05-13T00:01:18.579Z,54.32
2018-05-13T00:02:18.615Z,54.26
2018-05-13T00:03:18.783Z,54.33
2018-05-13T00:04:18.455Z,54.36
2018-05-13T00:05:19.243Z,54.37
2018-05-13T00:06:18.619Z,54.31
2018-05-13T00:07:18.519Z,54.27
2018-05-13T00:08:18.637Z,54.23
2018-05-13T00:09:18.527Z,54.29
2018-05-13T00:10:18.585Z,54.26
2018-05-13T00:11:18.731Z,54.27
2018-05-13T00:12:18.503Z,54.28
2018-05-13T00:13:18.460Z,54.29
2018-05-13T00:14:18.623Z,54.3
2018-05-13T00:15:18.519Z,54.36
2018-05-13T00:16:18.485Z,54.38
2018-05-13T00:17:18.586Z,54.3
2018-05-13T00:18:18.628Z,54.34
2018-05-13T00:19:18.626Z,54.38
2018-05-13T00:20:18.656Z,54.35
2018-05-13T00:21:18.527Z,54.39
2018-05-13T00:22:18.441Z,54.36
2018-05-13T00:23:18.480Z,54.32
2018-05-13T00:24:18.606Z,54.26
2018-05-13T00:25:18.530Z,54.39
2018-05-13T00:26:18.495Z,54.32
2018-05-13T00:27:18.632Z,54.33
2018-05-13T00:28:18.564Z,54.34
2018-05-13T00:29:18.866Z,54.31
2018-05-13T00:30:18.618Z,54.28
2018-05-13T00:31:18.509Z,54.37
2018-05-13T00:32:18.513Z,54.34
2018-05-13T00:33:18.648Z,54.36
2018-05-13T00:34:18.603Z,54.38
2018-05-13T00:35:18.587Z,54.34
2018-05-13T00:36:18.536Z,54.37
2018-05-13T00:37:18.701Z,54.41
2018-05-13T00:38:18.575Z,54.32
2018-05-13T00:39:18.557Z,54.35
2018-05-13T00:40:18.542Z,54.36
2018-05-13T00:41:18.630Z,54.36
2018-05-13T00:42:18.434Z,54.38
2018-05-13T00:43:18.582Z,54.37
2018-05-13T00:44:18.481Z,54.39
2018-05-13T00:45:19.237Z,54.38
2018-05-13T00:46:18.567Z,54.41
2018-05-13T00:47:18.616Z,54.37
2018-05-13T00:48:18.532Z,54.42
2018-05-13T00:49:18.494Z,54.4
2018-05-13T00:50:18.650Z,54.4
2018-05-13T00:51:18.433Z,54.36
2018-05-13T00:52:18.658Z,54.46
2018-05-13T00:53:18.544Z,54.41
2018-05-13T00:54:18.600Z,54.41
2018-05-13T00:55:18.435Z,54.39
2018-05-13T00:56:18.624Z,54.4
2018-05-13T00:57:18.495Z,54.43
2018-05-13T00:58:18.637Z,54.37
2018-05-13T00:59:18.407Z,54.25
2018-05-13T01:00:41.441Z,54.35
2018-05-13T01:01:18.556Z,54.44
2018-05-13T01:02:18.534Z,54.41
2018-05-13T01:03:18.696Z,54.4
2018-05-13T01:04:18.501Z,54.44
2018-05-13T01:05:18.576Z,54.38
2018-05-13T01:06:18.819Z,54.42
2018-05-13T01:07:18.492Z,54.45
2018-05-13T01:08:18.551Z,54.35
2018-05-13T01:09:18.456Z,54.43
2018-05-13T01:10:18.584Z,54.48
2018-05-13T01:11:18.492Z,54.41
2018-05-13T01:12:18.645Z,54.4
2018-05-13T01:13:18.788Z,54.46
2018-05-13T01:14:18.568Z,54.45
2018-05-13T01:15:18.639Z,54.43
2018-05-13T01:16:18.443Z,54.44
2018-05-13T01:17:18.572Z,54.44
2018-05-13T01:18:18.657Z,54.4
2018-05-13T01:19:18.780Z,54.46
2018-05-13T01:20:18.557Z,54.46
2018-05-13T01:21:18.598Z,54.44
2018-05-13T01:22:18.594Z,54.5
2018-05-13T01:23:18.481Z,54.49
2018-05-13T01:24:18.521Z,54.43
2018-05-13T01:25:18.603Z,54.47
2018-05-13T01:26:18.582Z,54.43
2018-05-13T01:27:18.540Z,54.43
2018-05-13T01:28:18.537Z,54.51
2018-05-13T01:29:18.941Z,54.49
2018-05-13T01:30:18.576Z,54.46
2018-05-13T01:31:18.455Z,54.47
2018-05-13T01:32:18.675Z,54.48
2018-05-13T01:33:18.602Z,54.46
2018-05-13T01:34:18.457Z,54.51
2018-05-13T01:35:18.427Z,54.48
2018-05-13T01:36:18.467Z,54.44
2018-05-13T01:37:18.682Z,54.54
2018-05-13T01:38:18.457Z,54.45
2018-05-13T01:39:18.435Z,54.47
2018-05-13T01:40:18.567Z,54.49
2018-05-13T01:41:18.518Z,54.49
2018-05-13T01:42:18.497Z,54.44
2018-05-13T01:43:18.614Z,54.54
2018-05-13T01:44:18.419Z,54.53
2018-05-13T01:45:18.624Z,54.51
2018-05-13T01:46:18.635Z,54.51
2018-05-13T01:47:18.555Z,54.48
2018-05-13T01:48:18.518Z,54.47
2018-05-13T01:49:18.757Z,54.48
2018-05-13T01:50:18.504Z,54.54
2018-05-13T01:51:18.669Z,54.49
2018-05-13T01:52:18.573Z,54.5
2018-05-13T01:53:18.447Z,54.48
2018-05-13T01:54:18.475Z,54.54
2018-05-13T01:55:18.481Z,54.54
2018-05-13T01:56:18.617Z,54.49
2018-05-13T01:57:18.596Z,54.55
2018-05-13T01:58:18.469Z,54.55
2018-05-13T01:59:18.599Z,54.54
2018-05-13T02:00:18.581Z,54.56
2018-05-13T02:01:18.482Z,54.55
2018-05-13T02:02:18.509Z,54.54
2018-05-13T02:03:18.465Z,54.53
2018-05-13T02:04:18.632Z,54.55
2018-05-13T02:05:18.448Z,54.51
2018-05-13T02:06:18.546Z,54.55
2018-05-13T02:07:18.606Z,54.56
2018-05-13T02:08:18.480Z,54.53
2018-05-13T02:09:18.741Z,54.53
2018-05-13T02:10:18.596Z,54.5
2018-05-13T02:11:18.395Z,54.5
2018-05-13T02:12:18.622Z,54.54
2018-05-13T02:13:18.449Z,54.51
2018-05-13T02:14:18.496Z,54.51
2018-05-13T02:15:18.649Z,54.54
2018-05-13T02:16:18.441Z,54.51
2018-05-13T02:17:18.476Z,54.49
2018-05-13T02:18:18.717Z,54.48
2018-05-13T02:19:18.556Z,54.51
2018-05-13T02:20:18.514Z,54.5
2018-05-13T02:21:18.573Z,54.47
2018-05-13T02:22:18.529Z,54.49
2018-05-13T02:23:18.559Z,54.49
2018-05-13T02:24:18.474Z,54.48
2018-05-13T02:25:18.724Z,54.49
2018-05-13T02:26:18.643Z,54.5
2018-05-13T02:27:18.579Z,54.53
2018-05-13T02:28:18.554Z,54.52
2018-05-13T02:29:18.459Z,54.53
2018-05-13T02:30:18.546Z,54.51
2018-05-13T02:31:18.455Z,54.54
2018-05-13T02:32:18.431Z,54.53
2018-05-13T02:33:18.621Z,54.53
2018-05-13T02:34:18.446Z,54.52
2018-05-13T02:35:18.659Z,54.53
2018-05-13T02:36:18.649Z,54.48
2018-05-13T02:37:18.561Z,54.51
2018-05-13T02:38:18.449Z,54.53
2018-05-13T02:39:18.508Z,54.52
2018-05-13T02:40:18.435Z,54.56
2018-05-13T02:41:18.428Z,54.52
2018-05-13T02:42:18.560Z,54.55
2018-05-13T02:43:18.542Z,54.56
2018-05-13T02:44:18.573Z,54.53
2018-05-13T02:45:18.617Z,54.52
2018-05-13T02:46:18.432Z,54.56
2018-05-13T02:47:18.356Z,54.54
2018-05-13T02:48:18.560Z,54.52
2018-05-13T02:49:18.745Z,54.56
2018-05-13T02:50:18.488Z,54.54
2018-05-13T02:51:18.531Z,54.55
2018-05-13T02:52:18.513Z,54.54
2018-05-13T02:53:18.470Z,54.51
2018-05-13T02:54:18.613Z,54.53
2018-05-13T02:55:18.527Z,54.54
2018-05-13T02:56:18.431Z,54.54
2018-05-13T02:57:18.635Z,54.54
2018-05-13T02:58:18.651Z,54.54
2018-05-13T02:59:18.866Z,54.54
2018-05-13T03:00:18.671Z,54.52
2018-05-13T03:01:18.617Z,54.56
2018-05-13T03:02:18.522Z,54.48
2018-05-13T03:03:18.567Z,54.53
2018-05-13T03:04:18.375Z,54.59
2018-05-13T03:05:18.518Z,54.53
2018-05-13T03:06:18.564Z,54.54
2018-05-13T03:07:18.623Z,54.56
2018-05-13T03:08:18.532Z,54.55
2018-05-13T03:09:18.626Z,54.54
2018-05-13T03:10:18.819Z,54.6
2018-05-13T03:11:18.686Z,54.54
2018-05-13T03:12:18.384Z,54.55
2018-05-13T03:13:18.590Z,54.59
2018-05-13T03:14:18.467Z,54.54
2018-05-13T03:15:18.635Z,54.57
2018-05-13T03:16:18.634Z,54.55
2018-05-13T03:17:18.527Z,54.55
2018-05-13T03:18:18.546Z,54.54
2018-05-13T03:19:18.833Z,54.54
2018-05-13T03:20:18.743Z,54.53
2018-05-13T03:21:18.362Z,54.54
2018-05-13T03:22:18.597Z,54.56
2018-05-13T03:23:18.541Z,54.6
2018-05-13T03:24:18.524Z,54.52
2018-05-13T03:25:18.534Z,54.59
2018-05-13T03:26:18.611Z,54.58
2018-05-13T03:27:18.663Z,54.55
2018-05-13T03:28:18.631Z,54.58
2018-05-13T03:29:18.619Z,54.54
2018-05-13T03:30:18.525Z,54.58
2018-05-13T03:31:18.518Z,54.6
2018-05-13T03:32:18.427Z,54.54
2018-05-13T03:33:18.622Z,54.56
2018-05-13T03:34:18.605Z,54.6
2018-05-13T03:35:18.440Z,54.52
2018-05-13T03:36:18.492Z,54.53
2018-05-13T03:37:18.578Z,54.57
2018-05-13T03:38:18.562Z,54.53
2018-05-13T03:39:18.388Z,54.52
2018-05-13T03:40:18.595Z,54.59
2018-05-13T03:41:18.447Z,54.55
2018-05-13T03:42:18.506Z,54.57
2018-05-13T03:43:18.386Z,54.59
2018-05-13T03:44:18.532Z,54.58
2018-05-13T03:45:18.491Z,54.52
2018-05-13T03:46:18.607Z,54.56
2018-05-13T03:47:18.475Z,54.58
2018-05-13T03:48:18.553Z,54.57
2018-05-13T03:49:18.463Z,54.56
2018-05-13T03:50:18.359Z,54.58
2018-05-13T03:51:18.567Z,54.5
2018-05-13T03:52:18.704Z,54.6
2018-05-13T03:53:18.452Z,54.58
2018-05-13T03:54:18.511Z,54.58
2018-05-13T03:55:18.560Z,54.56
2018-05-13T03:56:18.939Z,54.55
2018-05-13T03:57:18.507Z,54.58
2018-05-13T03:58:18.533Z,54.59
2018-05-13T03:59:18.449Z,54.51
2018-05-13T04:00:18.379Z,54.57
2018-05-13T04:01:18.442Z,54.59
2018-05-13T04:02:18.429Z,54.57
2018-05-13T04:03:18.521Z,54.53
2018-05-13T04:04:18.815Z,54.62
2018-05-13T04:05:18.380Z,54.55
2018-05-13T04:06:18.592Z,54.55
2018-05-13T04:07:19.162Z,54.56
2018-05-13T04:08:18.575Z,54.55
2018-05-13T04:09:18.572Z,54.53
2018-05-13T04:10:18.548Z,54.55
2018-05-13T04:11:18.594Z,54.55
2018-05-13T04:12:18.605Z,54.54
2018-05-13T04:13:18.424Z,54.61
2018-05-13T04:14:18.504Z,54.58
2018-05-13T04:15:18.444Z,54.54
2018-05-13T04:16:18.732Z,54.59
2018-05-13T04:17:18.513Z,54.54
2018-05-13T04:18:18.429Z,54.54
2018-05-13T04:19:18.433Z,54.59
2018-05-13T04:20:18.588Z,54.54
2018-05-13T04:21:18.444Z,54.52
2018-05-13T04:22:18.376Z,54.57
2018-05-13T04:23:18.434Z,54.53
2018-05-13T04:24:18.466Z,54.57
2018-05-13T04:25:18.852Z,54.56
2018-05-13T04:26:18.619Z,54.56
2018-05-13T04:27:18.407Z,54.57
2018-05-13T04:28:18.484Z,54.55
2018-05-13T04:29:18.608Z,54.52
2018-05-13T04:30:18.585Z,54.52
2018-05-13T04:31:18.543Z,54.55
2018-05-13T04:32:18.633Z,54.57
2018-05-13T04:33:18.411Z,54.57
2018-05-13T04:34:18.701Z,54.55
2018-05-13T04:35:18.644Z,54.58
2018-05-13T04:36:18.664Z,54.53
2018-05-13T04:37:18.383Z,54.57
2018-05-13T04:38:18.584Z,54.56
2018-05-13T04:39:18.984Z,54.58
2018-05-13T04:40:18.503Z,54.58
2018-05-13T04:41:18.527Z,54.52
2018-05-13T04:42:18.585Z,54.53
2018-05-13T04:43:18.503Z,54.58
2018-05-13T04:44:18.861Z,54.56
2018-05-13T04:45:18.549Z,54.53
2018-05-13T04:46:18.300Z,54.6
2018-05-13T04:47:18.546Z,54.59
2018-05-13T04:48:18.448Z,54.53
2018-05-13T04:49:18.773Z,54.58
2018-05-13T04:50:18.514Z,54.57
2018-05-13T04:51:18.565Z,54.54
2018-05-13T04:52:18.572Z,54.54
2018-05-13T04:53:18.395Z,54.52
2018-05-13T04:54:18.795Z,54.54
2018-05-13T04:55:18.387Z,54.58
2018-05-13T04:56:18.405Z,54.54
2018-05-13T04:57:18.594Z,54.55
2018-05-13T04:58:18.527Z,54.57
2018-05-13T04:59:18.649Z,54.54
2018-05-13T05:00:18.331Z,54.55
2018-05-13T05:01:18.556Z,54.59
2018-05-13T05:02:18.516Z,54.52
2018-05-13T05:03:18.901Z,54.53
2018-05-13T05:04:18.306Z,54.58
2018-05-13T05:05:18.465Z,54.52
2018-05-13T05:06:18.368Z,54.5
2018-05-13T05:07:18.590Z,54.55
2018-05-13T05:08:18.429Z,54.55
2018-05-13T05:09:18.517Z,54.57
2018-05-13T05:10:18.517Z,54.57
2018-05-13T05:11:18.523Z,54.57
2018-05-13T05:12:18.394Z,54.54
2018-05-13T05:13:28.443Z,54.53
2018-05-13T05:14:18.417Z,54.51
2018-05-13T05:15:18.662Z,54.55
2018-05-13T05:16:18.361Z,54.55
2018-05-13T05:17:18.558Z,54.52
2018-05-13T05:18:18.305Z,54.51
2018-05-13T05:19:18.563Z,54.59
2018-05-13T05:20:18.565Z,54.55
2018-05-13T05:21:18.473Z,54.49
2018-05-13T05:22:18.540Z,54.54
2018-05-13T05:23:18.454Z,54.56
2018-05-13T05:24:18.533Z,54.5
2018-05-13T05:25:18.527Z,54.52
2018-05-13T05:26:18.432Z,54.51
2018-05-13T05:27:18.320Z,54.44
2018-05-13T05:28:18.479Z,54.48
2018-05-13T05:29:18.427Z,54.51
2018-05-13T05:30:18.452Z,54.48
2018-05-13T05:31:18.674Z,54.52
2018-05-13T05:32:18.396Z,54.53
2018-05-13T05:33:18.575Z,54.47
2018-05-13T05:34:18.445Z,54.54
2018-05-13T05:35:18.739Z,54.48
2018-05-13T05:36:18.483Z,54.46
2018-05-13T05:37:18.401Z,54.47
2018-05-13T05:38:18.306Z,54.5
2018-05-13T05:39:18.511Z,54.46
2018-05-13T05:40:18.394Z,54.54
2018-05-13T05:41:18.623Z,54.5
2018-05-13T05:42:18.439Z,54.5
2018-05-13T05:43:18.480Z,54.51
2018-05-13T05:44:18.350Z,54.54
2018-05-13T05:45:18.564Z,54.51
2018-05-13T05:46:18.539Z,54.49
2018-05-13T05:47:18.396Z,54.53
2018-05-13T05:48:19.153Z,54.56
2018-05-13T05:49:18.448Z,54.54
2018-05-13T05:50:18.488Z,54.49
2018-05-13T05:51:18.413Z,54.52
2018-05-13T05:52:18.583Z,54.56
2018-05-13T05:53:18.462Z,54.54
2018-05-13T05:54:18.378Z,54.53
2018-05-13T05:55:18.472Z,54.52
2018-05-13T05:56:18.374Z,54.56
2018-05-13T05:57:18.399Z,54.48
2018-05-13T05:58:18.448Z,54.54
2018-05-13T05:59:18.466Z,54.53
2018-05-13T06:00:18.407Z,54.43
2018-05-13T06:01:18.502Z,54.54
2018-05-13T06:02:18.531Z,54.49
2018-05-13T06:03:19.199Z,54.54
2018-05-13T06:04:18.274Z,54.56
2018-05-13T06:05:18.283Z,54.54
2018-05-13T06:06:18.466Z,54.52
2018-05-13T06:07:18.543Z,54.56
2018-05-13T06:08:18.505Z,54.55
2018-05-13T06:09:18.568Z,54.5
2018-05-13T06:10:18.390Z,54.52
2018-05-13T06:11:18.675Z,54.51
2018-05-13T06:12:18.963Z,54.56
2018-05-13T06:13:18.705Z,54.56
2018-05-13T06:14:18.245Z,54.56
2018-05-13T06:15:18.638Z,54.54
2018-05-13T06:16:18.375Z,54.58
2018-05-13T06:17:18.496Z,54.52
2018-05-13T06:18:18.323Z,54.48
2018-05-13T06:19:18.424Z,54.61
2018-05-13T06:20:18.473Z,54.54
2018-05-13T06:21:18.462Z,54.52
2018-05-13T06:22:18.469Z,54.58
2018-05-13T06:23:18.344Z,54.59
2018-05-13T06:24:18.596Z,54.51
2018-05-13T06:25:19.139Z,54.59
2018-05-13T06:26:18.502Z,54.55
2018-05-13T06:27:18.287Z,54.57
2018-05-13T06:28:18.573Z,54.61
2018-05-13T06:29:18.614Z,54.52
2018-05-13T06:30:18.471Z,54.53
2018-05-13T06:31:18.508Z,54.56
2018-05-13T06:32:18.372Z,54.55
2018-05-13T06:33:18.693Z,54.46
2018-05-13T06:34:18.697Z,54.54
2018-05-13T06:35:18.346Z,54.55
2018-05-13T06:36:18.347Z,54.49
2018-05-13T06:37:18.637Z,54.52
2018-05-13T06:38:18.404Z,54.52
2018-05-13T06:39:18.604Z,54.49
2018-05-13T06:40:19.197Z,54.56
2018-05-13T06:41:18.331Z,54.51
2018-05-13T06:42:18.465Z,54.57
2018-05-13T06:43:18.392Z,54.55
2018-05-13T06:44:18.413Z,54.52
2018-05-13T06:45:19.425Z,54.5
2018-05-13T06:46:18.385Z,54.54
2018-05-13T06:47:18.525Z,54.51
2018-05-13T06:48:18.433Z,54.5
2018-05-13T06:49:18.483Z,54.54
2018-05-13T06:50:18.352Z,54.51
2018-05-13T06:51:19.384Z,54.52
2018-05-13T06:52:18.530Z,54.5
2018-05-13T06:53:18.554Z,54.51
2018-05-13T06:54:18.466Z,54.51
2018-05-13T06:55:18.664Z,54.55
2018-05-13T06:56:18.456Z,54.53
2018-05-13T06:57:18.871Z,54.52
2018-05-13T06:58:18.541Z,54.55
2018-05-13T06:59:18.330Z,54.52
2018-05-13T07:00:18.569Z,54.44
2018-05-13T07:01:18.377Z,54.54
2018-05-13T07:02:18.397Z,54.49
2018-05-13T07:03:18.505Z,54.48
2018-05-13T07:04:18.553Z,54.54
2018-05-13T07:05:18.504Z,54.51
2018-05-13T07:06:18.545Z,54.49
2018-05-13T07:07:18.481Z,54.5
2018-05-13T07:08:18.355Z,54.51
2018-05-13T07:09:18.490Z,54.51
2018-05-13T07:10:19.101Z,54.55
2018-05-13T07:11:18.478Z,54.52
2018-05-13T07:12:18.476Z,54.53
2018-05-13T07:13:18.402Z,54.57
2018-05-13T07:14:18.257Z,54.52
2018-05-13T07:15:18.581Z,54.48
2018-05-13T07:16:18.568Z,54.58
2018-05-13T07:17:18.443Z,54.56
2018-05-13T07:18:18.292Z,54.53
2018-05-13T07:19:18.507Z,54.56
2018-05-13T07:20:18.542Z,54.53
2018-05-13T07:21:18.453Z,54.53
2018-05-13T07:22:18.430Z,54.55
2018-05-13T07:23:18.460Z,54.5
2018-05-13T07:24:18.503Z,54.52
2018-05-13T07:25:18.446Z,54.55
2018-05-13T07:26:18.437Z,54.53
2018-05-13T07:27:18.621Z,54.54
2018-05-13T07:28:18.409Z,54.53
2018-05-13T07:29:18.955Z,54.56
2018-05-13T07:30:18.485Z,54.53
2018-05-13T07:31:18.667Z,54.52
2018-05-13T07:32:18.556Z,54.5
2018-05-13T07:33:18.493Z,54.5
2018-05-13T07:34:18.497Z,54.55
2018-05-13T07:35:18.343Z,54.5
2018-05-13T07:36:18.662Z,54.49
2018-05-13T07:37:18.531Z,54.58
2018-05-13T07:38:18.457Z,54.49
2018-05-13T07:39:18.512Z,54.49
2018-05-13T07:40:18.555Z,54.5
2018-05-13T07:41:18.347Z,54.47
2018-05-13T07:42:18.408Z,54.48
2018-05-13T07:43:18.958Z,54.49
2018-05-13T07:44:18.273Z,54.44
2018-05-13T07:45:18.530Z,54.48
2018-05-13T07:46:18.614Z,54.51
2018-05-13T07:47:18.635Z,54.44
2018-05-13T07:48:18.396Z,54.44
2018-05-13T07:49:18.465Z,54.5
2018-05-13T07:50:18.575Z,54.46
2018-05-13T07:51:18.432Z,54.49
2018-05-13T07:52:18.559Z,54.54
2018-05-13T07:53:18.441Z,54.77
2018-05-13T07:54:18.320Z,54.51
2018-05-13T07:55:18.357Z,54.82
2018-05-13T07:56:18.641Z,54.76
2018-05-13T07:57:18.496Z,54.89
2018-05-13T07:58:18.337Z,54.93
2018-05-13T07:59:18.412Z,54.74
2018-05-13T08:00:18.404Z,54.71
2018-05-13T08:01:18.683Z,54.63
2018-05-13T08:02:18.798Z,54.7
2018-05-13T08:03:18.339Z,54.6
2018-05-13T08:04:18.396Z,54.63
2018-05-13T08:05:18.415Z,54.6
2018-05-13T08:06:18.933Z,54.58
2018-05-13T08:07:18.452Z,54.62
2018-05-13T08:08:18.501Z,54.59
2018-05-13T08:09:18.384Z,54.64
2018-05-13T08:10:18.565Z,54.71
2018-05-13T08:11:18.311Z,54.7
2018-05-13T08:12:18.450Z,54.65
2018-05-13T08:13:18.353Z,54.63
2018-05-13T08:14:18.451Z,54.64
2018-05-13T08:15:18.308Z,54.61
2018-05-13T08:16:18.371Z,54.62
2018-05-13T08:17:18.423Z,54.62
2018-05-13T08:18:18.423Z,54.64
2018-05-13T08:19:18.298Z,54.6
2018-05-13T08:20:19.459Z,54.61
2018-05-13T08:21:18.477Z,54.56
2018-05-13T08:22:18.487Z,54.57
2018-05-13T08:23:18.451Z,54.52
2018-05-13T08:24:18.378Z,54.51
2018-05-13T08:25:18.391Z,54.57
2018-05-13T08:26:18.582Z,54.52
2018-05-13T08:27:18.526Z,54.55
2018-05-13T08:28:18.456Z,54.58
2018-05-13T08:29:18.408Z,54.51
2018-05-13T08:30:18.473Z,54.57
2018-05-13T08:31:18.515Z,54.56
2018-05-13T08:32:18.317Z,54.55
2018-05-13T08:33:18.388Z,54.56
2018-05-13T08:34:18.601Z,54.57
2018-05-13T08:35:18.338Z,54.51
2018-05-13T08:36:18.583Z,54.54
2018-05-13T08:37:18.488Z,54.6
2018-05-13T08:38:18.528Z,54.47
2018-05-13T08:39:18.479Z,54.44
2018-05-13T08:40:18.446Z,54.54
2018-05-13T08:41:18.734Z,54.6
2018-05-13T08:42:18.495Z,54.6
2018-05-13T08:43:18.327Z,54.65
2018-05-13T08:44:18.241Z,54.65
2018-05-13T08:45:18.390Z,54.66
2018-05-13T08:46:18.410Z,54.71
2018-05-13T08:47:18.835Z,54.6
2018-05-13T08:48:18.349Z,54.63
2018-05-13T08:49:18.329Z,54.65
2018-05-13T08:50:18.529Z,54.64
2018-05-13T08:51:18.351Z,54.6
2018-05-13T08:52:18.387Z,54.61
2018-05-13T08:53:18.615Z,54.62
2018-05-13T08:54:18.828Z,54.59
2018-05-13T08:55:18.552Z,54.64
2018-05-13T08:56:18.658Z,54.59
2018-05-13T08:57:18.333Z,54.62
2018-05-13T08:58:18.539Z,54.66
2018-05-13T08:59:18.460Z,54.61
2018-05-13T09:00:18.560Z,54.61
2018-05-13T09:01:18.393Z,54.65
2018-05-13T09:02:18.245Z,54.61
2018-05-13T09:03:18.412Z,54.56
2018-05-13T09:04:18.475Z,54.85
2018-05-13T09:05:18.314Z,54.79
2018-05-13T09:06:18.337Z,54.79
2018-05-13T09:07:18.642Z,55.24
2018-05-13T09:08:18.501Z,55.02
2018-05-13T09:09:18.293Z,54.96
2018-05-13T09:10:18.383Z,55.16
2018-05-13T09:11:18.381Z,55.03
2018-05-13T09:12:18.356Z,54.89
2018-05-13T09:13:18.559Z,55.1
2018-05-13T09:14:19.163Z,55.06
2018-05-13T09:15:18.456Z,54.96
2018-05-13T09:16:18.421Z,54.92
2018-05-13T09:17:18.652Z,54.95
2018-05-13T09:18:18.352Z,55.03
2018-05-13T09:19:18.272Z,55.1
2018-05-13T09:20:18.698Z,55.68
2018-05-13T09:21:18.464Z,55.42
2018-05-13T09:22:18.309Z,55.37
2018-05-13T09:23:18.655Z,55.28
2018-05-13T09:24:18.306Z,55.47
2018-05-13T09:25:18.415Z,55.41
2018-05-13T09:26:18.408Z,55.34
2018-05-13T09:27:18.497Z,55.26
2018-05-13T09:28:18.415Z,55.32
2018-05-13T09:29:18.451Z,55.22
2018-05-13T09:30:18.390Z,55.24
2018-05-13T09:31:18.375Z,55.42
2018-05-13T09:32:18.371Z,55.31
2018-05-13T09:33:18.455Z,55.2
2018-05-13T09:34:18.461Z,55.35
2018-05-13T09:35:18.359Z,55.25
2018-05-13T09:36:18.385Z,55.32
2018-05-13T09:37:18.444Z,55.43
2018-05-13T09:38:18.539Z,55.59
2018-05-13T09:39:18.317Z,55.36
2018-05-13T09:40:18.483Z,55.36
2018-05-13T09:41:18.397Z,55.3
2018-05-13T09:42:18.451Z,55.29
2018-05-13T09:43:18.636Z,55.32
2018-05-13T09:44:18.412Z,55.36
2018-05-13T09:45:18.677Z,55.34
2018-05-13T09:46:18.700Z,55.54
2018-05-13T09:47:18.839Z,55.31
2018-05-13T09:48:18.607Z,55.45
2018-05-13T09:49:18.651Z,55.55
2018-05-13T09:50:18.573Z,55.31
2018-05-13T09:51:28.740Z,55.52
2018-05-13T09:52:18.617Z,55.39
2018-05-13T09:53:18.771Z,55.43
2018-05-13T09:54:18.734Z,55.25
2018-05-13T09:55:18.843Z,55.37
2018-05-13T09:56:18.380Z,55.24
2018-05-13T09:57:19.074Z,55.2
2018-05-13T09:58:18.608Z,55.21
2018-05-13T09:59:18.788Z,55.16
2018-05-13T10:00:18.696Z,55.24
2018-05-13T10:01:18.655Z,55.27
2018-05-13T10:02:18.955Z,55.12
2018-05-13T10:03:18.792Z,55.16
2018-05-13T10:04:18.706Z,55.19
2018-05-13T10:05:18.654Z,55.24
2018-05-13T10:06:18.661Z,55.15
2018-05-13T10:07:18.286Z,55.2
2018-05-13T10:08:18.836Z,55.09
2018-05-13T10:09:18.386Z,55.13
2018-05-13T10:10:18.446Z,55.08
2018-05-13T10:11:18.703Z,55.09
2018-05-13T10:12:18.202Z,55.05
2018-05-13T10:13:18.815Z,55.12
2018-05-13T10:14:18.343Z,55.06
2018-05-13T10:15:18.893Z,55.04
2018-05-13T10:16:18.228Z,55.06
2018-05-13T10:17:18.826Z,54.98
2018-05-13T10:18:18.374Z,54.96
2018-05-13T10:19:18.483Z,54.99
2018-05-13T10:20:18.435Z,54.96
2018-05-13T10:21:18.718Z,54.92
2018-05-13T10:22:18.555Z,54.91
2018-05-13T10:23:18.223Z,54.88
2018-05-13T10:24:18.529Z,54.85
2018-05-13T10:25:18.381Z,54.87
2018-05-13T10:26:18.399Z,54.86
2018-05-13T10:27:18.990Z,54.88
2018-05-13T10:28:18.618Z,54.9
2018-05-13T10:29:18.465Z,54.83
2018-05-13T10:30:18.367Z,54.83
2018-05-13T10:31:18.460Z,55.01
2018-05-13T10:32:18.360Z,54.98
2018-05-13T10:33:18.344Z,55.03
2018-05-13T10:34:18.288Z,55.07
2018-05-13T10:35:18.323Z,55.04
2018-05-13T10:36:18.846Z,55.15
2018-05-13T10:37:18.448Z,55.2
2018-05-13T10:38:18.568Z,55.11
2018-05-13T10:39:18.286Z,55.09
2018-05-13T10:40:18.513Z,55.26
2018-05-13T10:41:18.528Z,55.13
2018-05-13T10:42:18.535Z,55.04
2018-05-13T10:43:18.285Z,55.07
2018-05-13T10:44:18.385Z,55.09
2018-05-13T10:45:18.448Z,55.05
2018-05-13T10:46:18.337Z,55.13
2018-05-13T10:47:18.439Z,55.05
2018-05-13T10:48:18.584Z,55.05
2018-05-13T10:49:18.240Z,55.16
2018-05-13T10:50:18.342Z,55.05
2018-05-13T10:51:18.537Z,55.01
2018-05-13T10:52:18.749Z,55.02
2018-05-13T10:53:18.421Z,55
2018-05-13T10:54:18.308Z,54.97
2018-05-13T10:55:18.346Z,55.03
2018-05-13T10:56:18.433Z,55.01
2018-05-13T10:57:18.542Z,54.97
2018-05-13T10:58:18.269Z,55.03
2018-05-13T10:59:18.300Z,54.99
2018-05-13T11:00:18.197Z,54.95
2018-05-13T11:01:18.377Z,54.98
2018-05-13T11:02:18.288Z,55.09
2018-05-13T11:03:18.563Z,55.02
2018-05-13T11:04:18.327Z,55.09
2018-05-13T11:05:18.362Z,54.98
2018-05-13T11:06:18.374Z,54.97
2018-05-13T11:07:18.375Z,55.01
2018-05-13T11:08:18.613Z,54.95
2018-05-13T11:09:18.198Z,55.01
2018-05-13T11:10:19.191Z,55
2018-05-13T11:11:18.378Z,55.04
2018-05-13T11:12:18.396Z,55.01
2018-05-13T11:13:18.326Z,55.03
2018-05-13T11:14:18.385Z,55.04
2018-05-13T11:15:18.320Z,55.23
2018-05-13T11:16:18.523Z,55.25
2018-05-13T11:17:18.238Z,55.36
2018-05-13T11:18:18.481Z,55.23
2018-05-13T11:19:18.425Z,55.1
2018-05-13T11:20:18.527Z,55.07
2018-05-13T11:21:18.275Z,55
2018-05-13T11:22:18.329Z,55.08
2018-05-13T11:23:18.252Z,55.07
2018-05-13T11:24:18.203Z,55.05
2018-05-13T11:25:18.354Z,55.08
2018-05-13T11:26:18.352Z,55.05
2018-05-13T11:27:18.367Z,55.02
2018-05-13T11:28:18.424Z,55.01
2018-05-13T11:29:18.366Z,54.93
2018-05-13T11:30:18.396Z,54.94
2018-05-13T11:31:18.412Z,55.01
2018-05-13T11:32:18.348Z,54.95
2018-05-13T11:33:18.327Z,54.95
2018-05-13T11:34:18.281Z,54.99
2018-05-13T11:35:18.472Z,54.91
2018-05-13T11:36:18.307Z,54.94
2018-05-13T11:37:18.460Z,54.95
2018-05-13T11:38:18.372Z,54.91
2018-05-13T11:39:18.297Z,54.88
2018-05-13T11:40:18.355Z,54.93
2018-05-13T11:41:18.433Z,54.99
2018-05-13T11:42:18.411Z,55.01
2018-05-13T11:43:18.348Z,55.03
2018-05-13T11:44:18.476Z,54.98
2018-05-13T11:45:18.375Z,54.96
2018-05-13T11:46:18.334Z,55
2018-05-13T11:47:18.371Z,54.97
2018-05-13T11:48:18.999Z,54.98
2018-05-13T11:49:18.491Z,55
2018-05-13T11:50:18.640Z,55.02
2018-05-13T11:51:18.511Z,55.03
2018-05-13T11:52:18.519Z,55.08
2018-05-13T11:53:18.354Z,55.18
2018-05-13T11:54:18.502Z,55.14
2018-05-13T11:55:18.291Z,55.04
2018-05-13T11:56:18.152Z,55.08
2018-05-13T11:57:18.531Z,55.05
2018-05-13T11:58:18.480Z,55.11
2018-05-13T11:59:18.291Z,55.05
2018-05-13T12:00:18.437Z,55.06
2018-05-13T12:01:18.341Z,55.03
2018-05-13T12:02:18.529Z,54.99
2018-05-13T12:03:18.291Z,55.06
2018-05-13T12:04:18.295Z,55.06
2018-05-13T12:05:18.281Z,55.06
2018-05-13T12:06:18.350Z,54.99
2018-05-13T12:07:18.263Z,55.01
2018-05-13T12:08:18.417Z,55.01
2018-05-13T12:09:18.306Z,55
2018-05-13T12:10:18.737Z,55.03
2018-05-13T12:11:18.297Z,54.98
2018-05-13T12:12:18.377Z,54.97
2018-05-13T12:13:18.331Z,55.03
2018-05-13T12:14:18.260Z,55.7
2018-05-13T12:15:18.464Z,55.8
2018-05-13T12:16:18.473Z,55.55
2018-05-13T12:17:18.396Z,55.1
2018-05-13T12:18:18.410Z,55.06
2018-05-13T12:19:18.276Z,55.1
2018-05-13T12:20:18.347Z,55.04
2018-05-13T12:21:18.205Z,55.08
2018-05-13T12:22:18.341Z,55.09
2018-05-13T12:23:18.395Z,55
2018-05-13T12:24:18.224Z,55.04
2018-05-13T12:25:18.252Z,55.08
2018-05-13T12:26:18.405Z,55.14
2018-05-13T12:27:18.289Z,55.15
2018-05-13T12:28:18.418Z,55.15
2018-05-13T12:29:18.390Z,55.08
2018-05-13T12:30:18.354Z,54.95
2018-05-13T12:31:18.394Z,54.99
2018-05-13T12:32:18.427Z,55.01
2018-05-13T12:33:18.287Z,55.05
2018-05-13T12:34:18.168Z,55.08
2018-05-13T12:35:18.372Z,55.02
2018-05-13T12:36:18.352Z,55.05
2018-05-13T12:37:18.367Z,55
2018-05-13T12:38:18.446Z,55.03
2018-05-13T12:39:18.428Z,54.96
2018-05-13T12:40:18.504Z,55.02
2018-05-13T12:41:18.341Z,54.98
2018-05-13T12:42:18.384Z,54.96
2018-05-13T12:43:18.182Z,55
2018-05-13T12:44:18.325Z,54.94
2018-05-13T12:45:18.470Z,54.96
2018-05-13T12:46:18.402Z,55.01
2018-05-13T12:47:18.195Z,54.96
2018-05-13T12:48:18.360Z,54.94
2018-05-13T12:49:18.392Z,54.96
2018-05-13T12:50:18.472Z,54.96
2018-05-13T12:51:18.475Z,54.91
2018-05-13T12:52:18.345Z,54.94
2018-05-13T12:53:18.546Z,54.93
2018-05-13T12:54:18.171Z,54.92
2018-05-13T12:55:18.251Z,54.96